createdAt,value
2018-11-13T00:03:54.476Z,100664.71
2018-11-13T00:07:57.950Z,100660.77
2018-11-13T00:12:01.439Z,100666.88
2018-11-13T00:16:05.249Z,100667.23
2018-11-13T00:20:11.574Z,100675.01
2018-11-13T00:24:15.089Z,100676.23
2018-11-13T00:28:18.569Z,100680.16
2018-11-13T00:32:22.110Z,100678.49
2018-11-13T00:36:25.635Z,100678.55
2018-11-13T00:40:29.135Z,100682.56
2018-11-13T00:44:32.575Z,100678.05
2018-11-13T00:48:36.086Z,100676.21
2018-11-13T00:52:39.572Z,100679.28
2018-11-13T00:56:43.065Z,100672.70
2018-11-13T01:00:46.555Z,100672.76
2018-11-13T01:04:50.019Z,100666.55
2018-11-13T01:08:53.814Z,100667.93
2018-11-13T01:12:57.291Z,100659.27
2018-11-13T01:17:00.829Z,100661.96
2018-11-13T01:21:04.326Z,100664.21
2018-11-13T01:25:08.743Z,100663.39
2018-11-13T01:29:12.339Z,100663.02
2018-11-13T01:33:15.818Z,100669.62
2018-11-13T01:37:19.276Z,100675.39
2018-11-13T01:41:22.767Z,100663.06
2018-11-13T01:45:26.265Z,100665.65
2018-11-13T01:49:29.760Z,100658.92
2018-11-13T01:53:33.178Z,100659.21
2018-11-13T01:57:36.895Z,100655.59
2018-11-13T02:01:40.369Z,100657.78
2018-11-13T02:05:43.844Z,100662.48
2018-11-13T02:09:47.318Z,100661.98
2018-11-13T02:13:50.802Z,100666.72
2018-11-13T02:17:54.509Z,100667.59
2018-11-13T02:21:58.051Z,100669.29
2018-11-13T02:26:01.509Z,100669.66
2018-11-13T02:30:05.447Z,100669.63
2018-11-13T02:34:09.202Z,100666.53
2018-11-13T02:38:12.713Z,100663.46
2018-11-13T02:42:16.270Z,100665.62
2018-11-13T02:46:19.789Z,100665.66
2018-11-13T02:50:23.198Z,100670.55
2018-11-13T02:54:26.664Z,100678.06
2018-11-13T02:58:30.341Z,100674.20
2018-11-13T03:02:34.031Z,100661.61
2018-11-13T03:06:37.507Z,100647.19
2018-11-13T03:10:41.031Z,100647.22
2018-11-13T03:14:44.501Z,100642.02
2018-11-13T03:18:48.014Z,100639.84
2018-11-13T03:22:51.512Z,100635.52
2018-11-13T03:26:54.990Z,100634.28
2018-11-13T03:30:58.596Z,100637.38
2018-11-13T03:35:01.958Z,100634.31
2018-11-13T03:39:07.360Z,100633.81
2018-11-13T03:43:10.862Z,100630.63
2018-11-13T03:47:14.300Z,100619.57
2018-11-13T03:51:17.778Z,100621.77
2018-11-13T03:55:21.522Z,100631.42
2018-11-13T03:59:25.001Z,100633.62
2018-11-13T04:03:28.691Z,100636.60
2018-11-13T04:07:32.271Z,100632.50
2018-11-13T04:11:35.805Z,100635.45
2018-11-13T04:15:39.448Z,100636.27
2018-11-13T04:19:42.901Z,100629.56
2018-11-13T04:23:46.389Z,100643.66
2018-11-13T04:27:49.850Z,100636.61
2018-11-13T04:31:53.273Z,100640.56
2018-11-13T04:35:56.742Z,100635.73
2018-11-13T04:40:00.196Z,100638.87
2018-11-13T04:44:03.708Z,100631.03
2018-11-13T04:48:07.169Z,100628.47
2018-11-13T04:52:10.658Z,100624.95
2018-11-13T04:56:14.145Z,100625.33
2018-11-13T05:00:21.741Z,100620.89
2018-11-13T05:04:25.222Z,100624.02
2018-11-13T05:08:28.713Z,100624.08
2018-11-13T05:12:32.171Z,100619.16
2018-11-13T05:16:35.654Z,100627.47
2018-11-13T05:20:39.173Z,100623.55
2018-11-13T05:24:42.625Z,100627.37
2018-11-13T05:28:46.255Z,100623.23
2018-11-13T05:32:49.816Z,100625.70
2018-11-13T05:36:53.322Z,100631.71
2018-11-13T05:40:56.845Z,100630.13
2018-11-13T05:45:02.159Z,100623.64
2018-11-13T05:49:05.828Z,100623.64
2018-11-13T05:53:09.433Z,100625.39
2018-11-13T05:57:12.930Z,100627.52
2018-11-13T06:01:16.450Z,100629.99
2018-11-13T06:05:19.938Z,100645.74
2018-11-13T06:09:23.443Z,100645.27
2018-11-13T06:13:26.901Z,100652.22
2018-11-13T06:17:30.378Z,100655.15
2018-11-13T06:21:33.831Z,100659.83
2018-11-13T06:25:37.302Z,100648.00
2018-11-13T06:29:40.835Z,100644.53
2018-11-13T06:33:44.330Z,100663.44
2018-11-13T06:37:47.906Z,100664.25
2018-11-13T06:41:51.420Z,100667.72
2018-11-13T06:45:54.918Z,100683.09
2018-11-13T06:49:58.393Z,100679.16
2018-11-13T06:54:12.918Z,100673.45
2018-11-13T06:58:16.397Z,100676.08
2018-11-13T07:02:19.926Z,100688.86
2018-11-13T07:06:23.481Z,100702.38
2018-11-13T07:10:27.790Z,100704.50
2018-11-13T07:14:31.283Z,100695.44
2018-11-13T07:18:34.791Z,100687.22
2018-11-13T07:22:38.276Z,100686.52
2018-11-13T07:26:41.791Z,100674.64
2018-11-13T07:30:45.225Z,100671.64
2018-11-13T07:34:48.755Z,100676.12
2018-11-13T07:38:52.240Z,100674.84
2018-11-13T07:42:55.886Z,100677.14
2018-11-13T07:46:59.504Z,100682.84
2018-11-13T07:51:02.969Z,100688.51
2018-11-13T07:55:06.951Z,100698.52
2018-11-13T07:59:10.531Z,100705.47
2018-11-13T08:03:33.292Z,100701.13
2018-11-13T08:07:36.816Z,100694.58
2018-11-13T08:11:40.306Z,100703.28
2018-11-13T08:15:43.988Z,100719.33
2018-11-13T08:19:47.707Z,100722.06
2018-11-13T08:23:51.207Z,100718.22
2018-11-13T08:27:54.758Z,100716.50
2018-11-13T08:31:58.321Z,100722.27
2018-11-13T08:36:01.741Z,100718.90
2018-11-13T08:40:07.175Z,100716.37
2018-11-13T08:44:10.843Z,100714.61
2018-11-13T08:48:14.189Z,100702.37
2018-11-13T08:52:17.680Z,100707.53
2018-11-13T08:56:21.132Z,100711.14
2018-11-13T09:00:24.655Z,100728.72
2018-11-13T09:04:28.183Z,100739.65
2018-11-13T09:08:31.666Z,100735.73
2018-11-13T09:12:35.095Z,100737.42
2018-11-13T09:16:38.694Z,100719.81
2018-11-13T09:20:42.137Z,100737.35
2018-11-13T09:24:45.670Z,100739.65
2018-11-13T09:28:49.203Z,100741.03
2018-11-13T09:32:52.795Z,100729.19
2018-11-13T09:36:56.247Z,100729.19
2018-11-13T09:40:59.701Z,100745.08
2018-11-13T09:45:03.311Z,100745.15
2018-11-13T09:49:06.959Z,100756.92
2018-11-13T09:53:10.446Z,100775.79
2018-11-13T09:57:13.888Z,100779.63
2018-11-13T10:01:17.800Z,100783.07
2018-11-13T10:05:21.624Z,100786.14
2018-11-13T10:09:24.925Z,100795.35
2018-11-13T10:13:28.429Z,100791.37
2018-11-13T10:17:32.005Z,100791.73
2018-11-13T10:21:35.550Z,100790.09
2018-11-13T10:25:39.040Z,100798.93
2018-11-13T10:29:42.494Z,100791.95
2018-11-13T10:33:45.983Z,100784.02
2018-11-13T10:37:49.495Z,100789.65
2018-11-13T10:41:52.998Z,100794.51
2018-11-13T10:45:56.461Z,100802.48
2018-11-13T10:49:59.962Z,100802.84
2018-11-13T10:54:03.622Z,100804.13
2018-11-13T10:58:07.074Z,100801.45
2018-11-13T11:02:15.742Z,100801.86
2018-11-13T11:06:19.263Z,100791.62
2018-11-13T11:10:22.738Z,100795.09
2018-11-13T11:14:26.213Z,100796.89
2018-11-13T11:18:29.799Z,100798.72
2018-11-13T11:22:33.331Z,100792.17
2018-11-13T11:26:36.781Z,100797.00
2018-11-13T11:30:40.262Z,100804.52
2018-11-13T11:34:44.415Z,100805.84
2018-11-13T11:38:47.978Z,100808.36
2018-11-13T11:42:51.431Z,100801.34
2018-11-13T11:46:54.890Z,100812.75
2018-11-13T11:50:58.377Z,100818.05
2018-11-13T11:55:01.912Z,100823.64
2018-11-13T11:59:05.474Z,100834.64
2018-11-13T12:03:08.983Z,100832.81
2018-11-13T12:07:12.437Z,100837.08
2018-11-13T12:11:15.937Z,100828.27
2018-11-13T12:15:19.402Z,100838.03
2018-11-13T12:19:22.947Z,100844.25
2018-11-13T12:23:26.416Z,100852.14
2018-11-13T12:27:29.908Z,100835.55
2018-11-13T12:31:33.354Z,100829.45
2018-11-13T12:35:37.216Z,100828.13
2018-11-13T12:39:40.695Z,100828.98
2018-11-13T12:43:44.192Z,100831.28
2018-11-13T12:47:47.639Z,100827.44
2018-11-13T12:51:56.459Z,100831.13
2018-11-13T12:56:00.568Z,100841.30
2018-11-13T13:00:04.051Z,100847.03
2018-11-13T13:04:07.515Z,100848.89
2018-11-13T13:08:11.083Z,100844.24
2018-11-13T13:12:14.529Z,100845.67
2018-11-13T13:16:18.032Z,100845.27
2018-11-13T13:20:22.851Z,100861.57
2018-11-13T13:24:26.454Z,100863.33
2018-11-13T13:28:29.939Z,100846.17
2018-11-13T13:32:33.415Z,100842.62
2018-11-13T13:36:37.078Z,100845.80
2018-11-13T13:40:41.390Z,100836.59
2018-11-13T13:44:44.881Z,100844.89
2018-11-13T13:48:48.612Z,100855.94
2018-11-13T13:52:52.133Z,100855.05
2018-11-13T13:56:56.739Z,100853.34
2018-11-13T14:01:00.389Z,100859.55
2018-11-13T14:05:03.770Z,100857.89
2018-11-13T14:09:09.189Z,100866.64
2018-11-13T14:13:12.837Z,100871.91
2018-11-13T14:17:16.344Z,100882.11
2018-11-13T14:21:19.822Z,100905.41
2018-11-13T14:25:23.410Z,100903.72
2018-11-13T14:29:26.854Z,100902.91
2018-11-13T14:33:30.410Z,100909.56
2018-11-13T14:37:33.877Z,100911.25
2018-11-13T14:41:37.398Z,100908.63
2018-11-13T14:45:41.017Z,100908.15
2018-11-13T14:49:44.525Z,100920.44
2018-11-13T14:53:48.038Z,100926.15
2018-11-13T14:57:51.931Z,100930.06
2018-11-13T15:01:55.529Z,100925.70
2018-11-13T15:05:59.060Z,100931.42
2018-11-13T15:10:03.630Z,100933.58
2018-11-13T15:14:07.141Z,100949.42
2018-11-13T15:18:10.959Z,100951.58
2018-11-13T15:22:14.583Z,100961.64
2018-11-13T15:26:18.020Z,100959.85
2018-11-13T15:30:25.961Z,100955.46
2018-11-13T15:34:29.594Z,100941.45
2018-11-13T15:38:33.091Z,100960.33
2018-11-13T15:42:38.281Z,100973.87
2018-11-13T15:46:40.627Z,100960.73
2018-11-13T15:50:44.115Z,100968.27
2018-11-13T15:54:48.060Z,100988.06
2018-11-13T15:58:51.558Z,100989.86
2018-11-13T16:02:55.735Z,100998.70
2018-11-13T16:06:59.460Z,100991.72
2018-11-13T16:11:03.044Z,100985.64
2018-11-13T16:15:06.920Z,100999.36
2018-11-13T16:19:10.458Z,101007.38
2018-11-13T16:23:13.961Z,101006.64
2018-11-13T16:27:17.478Z,101005.43
2018-11-13T16:31:20.917Z,101000.22
2018-11-13T16:35:25.605Z,101000.22
2018-11-13T16:39:29.010Z,101005.50
2018-11-13T16:43:33.062Z,101015.23
2018-11-13T16:47:36.534Z,101019.26
2018-11-13T16:51:40.119Z,101026.36
2018-11-13T16:55:48.819Z,101028.04
2018-11-13T16:59:52.328Z,101034.60
2018-11-13T17:03:55.843Z,101031.62
2018-11-13T17:07:59.272Z,101040.55
2018-11-13T17:12:03.123Z,101036.63
2018-11-13T17:16:06.609Z,101034.91
2018-11-13T17:20:11.235Z,101042.41
2018-11-13T17:24:14.752Z,101046.81
2018-11-13T17:28:18.307Z,101038.49
2018-11-13T17:32:21.830Z,101047.72
2018-11-13T17:36:25.382Z,101067.50
2018-11-13T17:40:31.052Z,101071.89
2018-11-13T17:44:34.625Z,101074.64
2018-11-13T17:48:38.089Z,101068.52
2018-11-13T17:52:42.027Z,101068.18
2018-11-13T17:56:45.483Z,101084.11
2018-11-13T18:00:49.220Z,101084.11
2018-11-13T18:09:18.402Z,101092.86
2018-11-13T18:13:21.895Z,101093.74
2018-11-13T18:17:25.382Z,101101.22
2018-11-13T18:21:28.875Z,101107.38
2018-11-13T18:25:32.285Z,101103.42
2018-11-13T18:29:35.945Z,101105.25
2018-11-13T18:33:39.561Z,101116.74
2018-11-13T18:37:43.388Z,101122.09
2018-11-13T18:41:47.020Z,101125.64
2018-11-13T18:45:50.735Z,101135.83
2018-11-13T18:49:54.443Z,101132.78
2018-11-13T18:53:58.082Z,101134.20
2018-11-13T18:58:02.161Z,101127.20
2018-11-13T19:02:06.239Z,101140.56
2018-11-13T19:06:09.846Z,101130.06
2018-11-13T19:10:51.787Z,101129.28
2018-11-13T19:14:55.423Z,101136.48
2018-11-13T19:18:59.397Z,101135.20
2018-11-13T19:23:04.958Z,101141.42
2018-11-13T19:27:09.405Z,101155.19
2018-11-13T19:31:13.159Z,101152.58
2018-11-13T19:35:17.272Z,101166.69
2018-11-13T19:39:20.951Z,101165.34
2018-11-13T19:43:24.588Z,101164.09
2018-11-13T19:47:30.122Z,101175.16
2018-11-13T19:51:33.906Z,101178.73
2018-11-13T19:55:37.694Z,101167.29
2018-11-13T19:59:41.471Z,101165.56
2018-11-13T20:03:45.294Z,101180.02
2018-11-13T20:07:50.149Z,101186.59
2018-11-13T20:11:55.679Z,101190.05
2018-11-13T20:15:59.375Z,101185.59
2018-11-13T20:20:03.105Z,101183.28
2018-11-13T20:24:06.843Z,101185.96
2018-11-13T20:28:10.397Z,101185.96
2018-11-13T20:32:13.938Z,101191.20
2018-11-13T20:36:17.437Z,101187.66
2018-11-13T20:40:27.220Z,101184.07
2018-11-13T20:44:30.794Z,101187.52
2018-11-13T20:48:34.353Z,101187.39
2018-11-13T20:52:38.024Z,101186.81
2018-11-13T20:56:41.529Z,101196.39
2018-11-13T21:00:45.046Z,101210.39
2018-11-13T21:04:48.925Z,101203.21
2018-11-13T21:08:52.429Z,101215.93
2018-11-13T21:12:55.945Z,101219.45
2018-11-13T21:16:59.499Z,101212.85
2018-11-13T21:21:03.088Z,101216.81
2018-11-13T21:25:07.990Z,101226.37
2018-11-13T21:29:11.157Z,101227.22
2018-11-13T21:33:14.926Z,101221.91
2018-11-13T21:37:18.589Z,101216.59
2018-11-13T21:41:22.042Z,101226.66
2018-11-13T21:45:26.494Z,101223.11
2018-11-13T21:49:30.015Z,101229.70
2018-11-13T21:53:33.543Z,101238.90
2018-11-13T21:57:37.087Z,101236.99
2018-11-13T22:01:40.660Z,101248.83
2018-11-13T22:05:44.225Z,101246.91
2018-11-13T22:09:47.814Z,101249.78
2018-11-13T22:13:51.271Z,101247.43
2018-11-13T22:17:54.731Z,101252.59
2018-11-13T22:21:58.209Z,101258.73
2018-11-13T22:26:01.665Z,101258.69
2018-11-13T22:30:05.346Z,101255.10
2018-11-13T22:34:08.915Z,101261.20
2018-11-13T22:38:12.387Z,101255.85
2018-11-13T22:42:15.886Z,101257.13
2018-11-13T22:46:19.383Z,101265.00
2018-11-13T22:50:26.976Z,101261.62
2018-11-13T22:54:30.450Z,101266.33
2018-11-13T22:58:33.907Z,101258.81
2018-11-13T23:02:37.372Z,101259.69
2018-11-13T23:06:40.881Z,101265.92
2018-11-13T23:10:44.364Z,101266.33
2018-11-13T23:14:47.850Z,101267.64
2018-11-13T23:18:51.338Z,101265.40
2018-11-13T23:22:54.835Z,101268.81
2018-11-13T23:26:58.322Z,101271.41
2018-11-13T23:31:01.853Z,101274.84
2018-11-13T23:35:06.189Z,101269.95
2018-11-13T23:39:09.426Z,101279.66
2018-11-13T23:43:12.914Z,101276.50
2018-11-13T23:47:16.705Z,101272.59
2018-11-13T23:51:20.025Z,101269.91
2018-11-13T23:55:23.536Z,101279.09
2018-11-13T23:59:26.959Z,101279.03
